createdAt,value
2023-02-23T00:00:31.602Z,74.7
2023-02-23T00:05:31.445Z,74.7
2023-02-23T00:10:31.417Z,74.7
2023-02-23T00:15:31.577Z,74.6
2023-02-23T00:20:31.380Z,74.6
2023-02-23T00:25:31.371Z,74.6
2023-02-23T00:30:31.654Z,74.6
2023-02-23T00:35:31.639Z,74.6
2023-02-23T00:40:31.393Z,74.6
2023-02-23T00:45:31.319Z,74.6
2023-02-23T00:50:31.350Z,74.6
2023-02-23T00:55:31.335Z,74.6
2023-02-23T01:00:31.339Z,74.6
2023-02-23T01:05:31.416Z,74.6
2023-02-23T01:10:31.285Z,74.6
2023-02-23T01:15:31.338Z,74.6
2023-02-23T01:20:31.373Z,74.6
2023-02-23T01:25:31.275Z,74.6
2023-02-23T01:30:31.572Z,74.6
2023-02-23T01:35:31.493Z,74.7
2023-02-23T01:40:31.295Z,74.7
2023-02-23T01:45:31.324Z,74.7
2023-02-23T01:50:31.527Z,74.7
2023-02-23T01:55:31.607Z,74.7
2023-02-23T02:00:31.384Z,74.7
2023-02-23T02:05:31.402Z,74.7
2023-02-23T02:10:31.224Z,74.7
2023-02-23T02:15:31.211Z,74.7
2023-02-23T02:20:31.419Z,74.7
2023-02-23T02:25:31.174Z,74.7
2023-02-23T02:30:31.169Z,74.8
2023-02-23T02:35:31.328Z,74.8
2023-02-23T02:40:31.111Z,74.8
2023-02-23T02:45:31.443Z,74.8
2023-02-23T02:50:31.419Z,74.8
2023-02-23T02:55:31.132Z,74.8
2023-02-23T03:00:31.156Z,74.8
2023-02-23T03:05:31.277Z,74.8
2023-02-23T03:10:31.188Z,74.9
2023-02-23T03:15:31.133Z,74.9
2023-02-23T03:20:31.012Z,75.0
2023-02-23T03:25:31.171Z,75.0
2023-02-23T03:30:31.173Z,75.0
2023-02-23T03:35:31.272Z,75.1
2023-02-23T03:40:31.093Z,75.1
2023-02-23T03:45:31.106Z,75.1
2023-02-23T03:50:31.233Z,75.1
2023-02-23T03:55:30.966Z,75.2
2023-02-23T04:00:30.963Z,75.2
2023-02-23T04:05:31.113Z,75.2
2023-02-23T04:10:30.943Z,75.3
2023-02-23T04:15:31.045Z,75.3
2023-02-23T04:20:31.255Z,75.3
2023-02-23T04:25:31.084Z,75.3
2023-02-23T04:30:31.059Z,75.4
2023-02-23T04:35:30.950Z,75.4
2023-02-23T04:40:30.912Z,75.4
2023-02-23T04:45:31.033Z,75.4
2023-02-23T04:50:32.551Z,75.5
2023-02-23T04:55:30.881Z,75.5
2023-02-23T05:00:31.272Z,75.4
2023-02-23T05:05:30.859Z,75.4
2023-02-23T05:10:30.850Z,75.5
2023-02-23T05:15:30.966Z,75.5
2023-02-23T05:20:30.928Z,75.4
2023-02-23T05:25:31.234Z,75.5
2023-02-23T05:30:30.910Z,75.6
2023-02-23T05:35:30.968Z,75.6
2023-02-23T05:40:30.878Z,75.6
2023-02-23T05:45:30.822Z,75.5
2023-02-23T05:50:31.259Z,75.5
2023-02-23T05:55:30.944Z,75.7
2023-02-23T06:00:30.890Z,75.8
2023-02-23T06:05:30.789Z,75.7
2023-02-23T06:10:30.819Z,75.7
2023-02-23T06:15:30.807Z,75.8
2023-02-23T06:20:41.415Z,75.9
2023-02-23T06:25:30.720Z,75.9
2023-02-23T06:30:30.803Z,75.9
2023-02-23T06:35:30.840Z,75.9
2023-02-23T06:40:30.794Z,76.0
2023-02-23T06:45:30.919Z,76.0
2023-02-23T06:50:30.767Z,76.1
2023-02-23T06:55:30.844Z,76.1
2023-02-23T07:00:31.012Z,76.1
2023-02-23T07:05:30.734Z,76.2
2023-02-23T07:10:30.717Z,76.2
2023-02-23T07:15:30.872Z,76.2
2023-02-23T07:20:30.700Z,76.2
2023-02-23T07:25:30.711Z,76.2
2023-02-23T07:30:30.597Z,76.3
2023-02-23T07:35:30.689Z,76.3
2023-02-23T07:40:30.723Z,76.3
2023-02-23T07:45:31.088Z,76.2
2023-02-23T07:50:30.646Z,76.2
2023-02-23T07:55:30.616Z,76.2
2023-02-23T08:00:30.551Z,76.3
2023-02-23T08:05:30.617Z,76.2
2023-02-23T08:10:30.566Z,76.2
2023-02-23T08:15:30.656Z,76.2
2023-02-23T08:20:30.538Z,76.2
2023-02-23T08:25:30.512Z,76.1
2023-02-23T08:30:30.937Z,76.1
2023-02-23T08:35:30.469Z,76.0
2023-02-23T08:40:30.557Z,76.0
2023-02-23T08:45:30.921Z,75.9
2023-02-23T08:50:31.511Z,76.0
2023-02-23T08:55:30.462Z,76.0
2023-02-23T09:00:30.532Z,76.0
2023-02-23T09:05:30.593Z,75.9
2023-02-23T09:10:30.626Z,75.8
2023-02-23T09:15:30.424Z,75.9
2023-02-23T09:20:30.485Z,75.9
2023-02-23T09:25:30.827Z,75.7
2023-02-23T09:30:30.401Z,75.7
2023-02-23T09:35:30.350Z,75.5
2023-02-23T09:40:30.589Z,75.4
2023-02-23T09:45:30.425Z,75.4
2023-02-23T09:50:30.387Z,75.3
2023-02-23T09:55:30.462Z,75.2
2023-02-23T10:00:30.431Z,75.2
2023-02-23T10:05:30.465Z,75.2
2023-02-23T10:10:30.573Z,75.1
2023-02-23T10:15:30.421Z,75.0
2023-02-23T10:20:30.306Z,74.9
2023-02-23T10:25:30.300Z,74.9
2023-02-23T10:30:30.495Z,74.7
2023-02-23T10:35:30.399Z,74.7
2023-02-23T10:40:30.494Z,74.4
2023-02-23T10:45:30.330Z,74.2
2023-02-23T10:50:30.368Z,74.2
2023-02-23T10:55:30.542Z,74.1
2023-02-23T11:05:30.534Z,74.0
2023-02-23T11:10:30.322Z,74.1
2023-02-23T11:15:48.898Z,73.9
2023-02-23T11:20:30.177Z,73.7
2023-02-23T11:25:30.232Z,73.6
2023-02-23T11:30:30.477Z,73.5
2023-02-23T11:35:30.172Z,73.3
2023-02-23T11:40:30.135Z,73.3
2023-02-23T11:45:30.394Z,73.1
2023-02-23T11:50:30.258Z,73.0
2023-02-23T11:55:30.211Z,72.9
2023-02-23T12:00:30.309Z,72.7
2023-02-23T12:05:30.128Z,72.5
2023-02-23T12:10:30.260Z,72.3
2023-02-23T12:15:30.396Z,72.3
2023-02-23T12:20:30.144Z,72.1
2023-02-23T12:25:30.098Z,72.0
2023-02-23T12:30:30.244Z,72.0
2023-02-23T12:35:31.187Z,71.8
2023-02-23T12:40:30.093Z,71.7
2023-02-23T12:45:30.398Z,71.6
2023-02-23T12:50:30.060Z,71.6
2023-02-23T12:55:30.066Z,71.5
2023-02-23T13:00:30.253Z,71.3
2023-02-23T13:05:30.102Z,71.3
2023-02-23T13:10:30.071Z,71.2
2023-02-23T13:15:30.318Z,71.2
2023-02-23T13:20:30.113Z,71.2
2023-02-23T13:25:29.954Z,71.2
2023-02-23T13:30:31.132Z,71.0
2023-02-23T13:35:29.967Z,71.0
2023-02-23T13:40:29.973Z,71.0
2023-02-23T13:45:29.986Z,70.9
2023-02-23T13:50:29.974Z,70.9
2023-02-23T13:55:43.231Z,70.8
2023-02-23T14:00:30.009Z,70.7
2023-02-23T14:05:30.042Z,70.6
2023-02-23T14:10:29.866Z,70.6
2023-02-23T14:15:31.044Z,70.6
2023-02-23T14:20:30.369Z,70.5
2023-02-23T14:25:29.931Z,70.4
2023-02-23T14:30:31.221Z,70.4
2023-02-23T14:35:29.939Z,70.4
2023-02-23T14:40:29.925Z,70.3
2023-02-23T14:45:30.003Z,70.3
2023-02-23T14:50:29.993Z,70.2
2023-02-23T14:55:30.119Z,70.2
2023-02-23T15:00:29.891Z,70.2
2023-02-23T15:05:29.864Z,70.3
2023-02-23T15:10:30.069Z,70.3
2023-02-23T15:15:29.870Z,70.2
2023-02-23T15:20:29.885Z,70.2
2023-02-23T15:25:30.096Z,70.2
2023-02-23T15:30:29.910Z,70.2
2023-02-23T15:35:29.779Z,70.2
2023-02-23T15:40:30.079Z,70.3
2023-02-23T15:45:29.836Z,70.3
2023-02-23T15:50:36.519Z,70.3
2023-02-23T15:55:30.109Z,70.3
2023-02-23T16:00:29.716Z,70.4
2023-02-23T16:05:35.412Z,70.5
2023-02-23T16:10:29.679Z,70.5
2023-02-23T16:15:29.780Z,70.4
2023-02-23T16:20:29.760Z,70.5
2023-02-23T16:25:30.566Z,70.5
2023-02-23T16:30:30.543Z,70.5
2023-02-23T16:35:30.498Z,70.6
2023-02-23T16:40:30.512Z,70.7
2023-02-23T16:45:30.500Z,70.7
2023-02-23T16:50:30.687Z,70.8
2023-02-23T16:55:30.680Z,70.8
2023-02-23T17:00:30.364Z,70.8
2023-02-23T17:05:30.554Z,70.8
2023-02-23T17:10:30.516Z,70.9
2023-02-23T17:15:30.525Z,71.0
2023-02-23T17:20:30.668Z,71.0
2023-02-23T17:25:30.527Z,71.1
2023-02-23T17:30:30.587Z,71.1
2023-02-23T17:35:30.864Z,71.2
2023-02-23T17:40:30.394Z,71.2
2023-02-23T17:45:30.480Z,71.2
2023-02-23T17:55:29.624Z,71.2
2023-02-23T18:00:29.607Z,71.3
2023-02-23T18:05:29.755Z,71.3
2023-02-23T18:10:30.340Z,71.4
2023-02-23T18:15:29.594Z,71.4
2023-02-23T18:20:29.508Z,71.5
2023-02-23T18:25:30.311Z,71.5
2023-02-23T18:30:29.594Z,71.6
2023-02-23T18:35:29.616Z,71.6
2023-02-23T18:40:29.585Z,71.6
2023-02-23T18:45:29.514Z,71.7
2023-02-23T18:50:29.705Z,71.7
2023-02-23T18:55:29.524Z,71.8
2023-02-23T19:00:30.369Z,71.8
2023-02-23T19:05:30.268Z,71.9
2023-02-23T19:10:30.266Z,71.9
2023-02-23T19:15:30.342Z,72.0
2023-02-23T19:20:30.354Z,72.0
2023-02-23T19:25:30.307Z,72.1
2023-02-23T19:30:30.468Z,72.1
2023-02-23T19:35:29.468Z,72.2
2023-02-23T19:40:30.328Z,72.2
2023-02-23T19:45:29.436Z,72.3
2023-02-23T19:50:29.491Z,72.3
2023-02-23T19:55:30.925Z,72.4
2023-02-23T20:00:31.034Z,72.5
2023-02-23T20:05:45.350Z,72.5
2023-02-23T20:10:29.328Z,72.6
2023-02-23T20:15:29.339Z,72.6
2023-02-23T20:20:29.558Z,72.7
2023-02-23T20:25:29.546Z,72.7
2023-02-23T20:30:30.563Z,72.8
2023-02-23T20:35:29.543Z,72.8
2023-02-23T20:40:29.213Z,72.9
2023-02-23T20:45:30.549Z,72.9
2023-02-23T20:50:31.019Z,72.9
2023-02-23T20:55:29.324Z,73.0
2023-02-23T21:00:29.305Z,73.0
2023-02-23T21:05:29.324Z,73.1
2023-02-23T21:10:29.363Z,73.2
2023-02-23T21:15:29.333Z,73.3
2023-02-23T21:20:29.233Z,73.3
2023-02-23T21:25:29.276Z,73.4
2023-02-23T21:30:29.196Z,73.5
2023-02-23T21:35:29.212Z,73.6
2023-02-23T21:40:29.374Z,73.6
2023-02-23T21:45:29.191Z,73.7
2023-02-23T21:50:29.168Z,73.7
2023-02-23T21:55:29.356Z,73.7
2023-02-23T22:00:29.231Z,73.6
2023-02-23T22:05:29.249Z,73.7
2023-02-23T22:10:29.377Z,73.8
2023-02-23T22:15:29.117Z,73.9
2023-02-23T22:20:29.254Z,74.0
2023-02-23T22:25:29.326Z,74.1
2023-02-23T22:30:29.144Z,74.2
2023-02-23T22:35:29.185Z,74.2
2023-02-23T22:40:29.215Z,74.2
2023-02-23T22:45:29.153Z,74.2
2023-02-23T22:50:29.201Z,74.2
2023-02-23T22:55:29.359Z,74.2
2023-02-23T23:00:28.987Z,74.2
2023-02-23T23:05:29.145Z,74.2
2023-02-23T23:10:29.301Z,74.3
2023-02-23T23:15:29.145Z,74.4
2023-02-23T23:20:29.048Z,74.4
2023-02-23T23:25:29.301Z,74.4
2023-02-23T23:30:29.031Z,74.6
2023-02-23T23:35:29.041Z,74.7
2023-02-23T23:40:29.177Z,74.7
2023-02-23T23:45:29.181Z,74.7
2023-02-23T23:50:29.941Z,74.7
2023-02-23T23:55:31.922Z,74.6
